Captain Ed — WDF6338 — position and weather

sailwx.info

Track history (hours):
 
Tides and Currents Weather Stations Pressure Air Temp Water Temp Dewpoint Dewpoint Depression Visibility Wind Speed Wind Dir Waves Ship Positions

Captain Ed

Owner: Norfolk Dredging Company, Chesapeake, VA. More information available from US FCC via Universal Licensing System and Coast Guard Vessel Documentation Center.

Last reported at 2017-Mar-09 02:33 UTC. Time now 2017-Mar-23 16:27 UTC.
Position N 38°58' W 076°23'.
Warning: this ship's position is 14 days out of date.

Length 22 m; draft 3 m.

Type: Tug. MMSI: 367473210.

Date/timePositionNaut miles runAvg speedWind from/ knotsBaromVisibWave heightAir tempDewpointWater temp
2017-Mar-09 02:33N 38°58' W 076°23'8 8.2
2017-Mar-09 01:33N 39°06' W 076°24'7 7.4
2017-Mar-09 00:33N 39°12' W 076°30'4 0.6
2017-Mar-08 18:25N 39°14' W 076°34'0 0.0
2017-Mar-08 17:33N 39°14' W 076°34'0 0.0
2017-Mar-08 15:29N 39°14' W 076°34'0 0.0
2017-Mar-08 14:32N 39°14' W 076°34'0 0.0
2017-Mar-08 13:32N 39°14' W 076°34'0 0.0
2017-Mar-08 12:33N 39°14' W 076°34'0 0.0
2017-Mar-08 10:30N 39°14' W 076°34'5 5.4
2017-Mar-08 09:29N 39°11' W 076°28'  
Track history (hours):
 
Tides and Currents Weather Stations Pressure Air Temp Water Temp Dewpoint Dewpoint Depression Visibility Wind Speed Wind Dir Waves Ship Positions

Captain Ed

Owner: Norfolk Dredging Company, Chesapeake, VA. More information available from US FCC via Universal Licensing System and Coast Guard Vessel Documentation Center.

Last reported at 2017-Mar-09 02:33 UTC. Time now 2017-Mar-23 16:27 UTC.
Position N 38°58' W 076°23'.
Warning: this ship's position is 14 days out of date.

Length 22 m; draft 3 m.

Type: Tug. MMSI: 367473210.

Date/timePositionNaut miles runAvg speedWind from/ knotsBaromVisibWave heightAir tempDewpointWater temp
2017-Mar-09 02:33N 38°58' W 076°23'8 8.2
2017-Mar-09 01:33N 39°06' W 076°24'7 7.4
2017-Mar-09 00:33N 39°12' W 076°30'4 0.6
2017-Mar-08 18:25N 39°14' W 076°34'0 0.0
2017-Mar-08 17:33N 39°14' W 076°34'0 0.0
2017-Mar-08 15:29N 39°14' W 076°34'0 0.0
2017-Mar-08 14:32N 39°14' W 076°34'0 0.0
2017-Mar-08 13:32N 39°14' W 076°34'0 0.0
2017-Mar-08 12:33N 39°14' W 076°34'0 0.0
2017-Mar-08 10:30N 39°14' W 076°34'5 5.4
2017-Mar-08 09:29N 39°11' W 076°28'  

Dump ship's entire track history